Time;durP1;ratioP1;P1;durP2;ratioP2;P2;SDS_P1;SDS_P2;PMS_P1;PMS_P2;Temp;Humidity;BMP_temperature;BMP_pressure;BME280_temperature;BME280_humidity;BME280_pressure;Samples;Min_cycle;Max_cycle;Signal;HPM_P1;HPM_P2
2024/02/16 00:01:45;;;;;;;9.30;2.92;;;16.20;98.00;;;;;;5097614;28;20521;-72
2024/02/16 00:04:11;;;;;;;7.22;3.30;;;16.30;98.00;;;;;;5090713;28;20028;-72
2024/02/16 00:06:36;;;;;;;8.80;3.47;;;16.30;98.00;;;;;;5092474;28;20043;-72
2024/02/16 00:09:02;;;;;;;14.20;2.78;;;16.30;98.00;;;;;;5099341;28;20057;-72
2024/02/16 00:11:28;;;;;;;9.50;3.28;;;16.20;98.00;;;;;;5105844;28;20034;-71
2024/02/16 00:13:54;;;;;;;6.97;2.75;;;16.20;98.00;;;;;;5095183;28;20110;-72
2024/02/16 00:16:21;;;;;;;6.60;3.00;;;16.20;98.00;;;;;;5093410;28;20480;-72
2024/02/16 00:18:46;;;;;;;8.55;2.95;;;16.20;98.10;;;;;;5097009;28;20042;-71
2024/02/16 00:21:12;;;;;;;10.77;2.90;;;16.20;98.00;;;;;;5092065;28;20040;-71
2024/02/16 00:23:37;;;;;;;5.60;2.97;;;16.20;98.10;;;;;;5107852;28;20062;-72
2024/02/16 00:26:07;;;;;;;6.10;2.95;;;16.20;98.10;;;;;;5091521;28;20028;-72
2024/02/16 00:28:32;;;;;;;6.28;2.75;;;16.20;98.10;;;;;;5108183;28;20379;-71
2024/02/16 00:30:58;;;;;;;6.05;2.70;;;16.20;98.20;;;;;;5106726;28;20032;-72
2024/02/16 00:33:23;;;;;;;6.85;2.85;;;16.20;98.20;;;;;;5090005;28;20044;-71
2024/02/16 00:35:49;;;;;;;7.10;2.83;;;16.20;98.20;;;;;;5095531;28;20123;-72
2024/02/16 00:38:15;;;;;;;4.93;2.50;;;16.20;98.20;;;;;;5090250;28;20464;-71
2024/02/16 00:40:44;;;;;;;7.95;2.80;;;16.10;98.20;;;;;;5088729;28;20040;-71
2024/02/16 00:43:10;;;;;;;6.78;2.97;;;16.10;98.20;;;;;;5101383;28;20047;-71
2024/02/16 00:45:37;;;;;;;8.90;3.10;;;16.10;98.20;;;;;;5100789;28;20040;-72
2024/02/16 00:48:03;;;;;;;4.50;2.50;;;16.10;98.20;;;;;;5108686;28;20031;-71
2024/02/16 00:50:29;;;;;;;6.90;2.50;;;16.10;98.20;;;;;;5107503;28;20066;-73
2024/02/16 00:52:55;;;;;;;6.40;3.00;;;16.10;98.20;;;;;;5089250;28;20036;-71
2024/02/16 00:55:20;;;;;;;7.45;2.63;;;16.10;98.30;;;;;;5101159;28;20399;-71
2024/02/16 00:57:46;;;;;;;8.30;2.75;;;16.10;98.30;;;;;;5097059;28;20081;-71
2024/02/16 01:00:12;;;;;;;7.70;3.05;;;16.10;98.30;;;;;;5092151;28;20024;-71
2024/02/16 01:02:38;;;;;;;8.57;3.10;;;16.00;98.20;;;;;;5096921;28;20036;-72
2024/02/16 01:05:04;;;;;;;7.43;3.17;;;16.10;98.20;;;;;;5094466;28;20119;-71
2024/02/16 01:07:31;;;;;;;7.82;2.92;;;16.10;98.20;;;;;;5092648;28;20028;-71
2024/02/16 01:09:57;;;;;;;8.63;3.40;;;16.00;98.20;;;;;;5101016;28;20027;-71
2024/02/16 01:12:22;;;;;;;6.20;2.67;;;16.10;98.20;;;;;;5101637;28;20741;-71
2024/02/16 01:14:48;;;;;;;6.88;2.75;;;16.10;98.10;;;;;;5088016;28;20044;-71
2024/02/16 01:17:14;;;;;;;8.93;2.90;;;16.00;98.00;;;;;;5092934;28;20020;-71
2024/02/16 01:19:40;;;;;;;4.50;2.47;;;16.10;98.10;;;;;;5095791;28;20490;-72
2024/02/16 01:22:08;;;;;;;10.30;2.83;;;16.00;98.10;;;;;;5093488;28;20410;-71
2024/02/16 01:24:34;;;;;;;4.32;2.60;;;16.00;98.10;;;;;;5101206;28;20082;-72
2024/02/16 01:27:00;;;;;;;9.52;3.05;;;16.00;98.10;;;;;;5105029;27;20418;-71
2024/02/16 01:29:26;;;;;;;7.32;2.83;;;16.00;98.00;;;;;;5115886;27;20031;-72
2024/02/16 01:31:51;;;;;;;5.25;2.90;;;16.00;98.00;;;;;;5103975;27;20532;-71
2024/02/16 01:34:17;;;;;;;5.18;2.75;;;16.00;98.00;;;;;;5087462;28;20442;-71
2024/02/16 01:36:43;;;;;;;7.05;2.80;;;16.00;97.90;;;;;;5093369;27;20028;-72
2024/02/16 01:39:08;;;;;;;7.93;3.13;;;16.00;97.80;;;;;;5091115;28;20464;-72
2024/02/16 01:41:38;;;;;;;6.95;2.80;;;16.00;97.80;;;;;;5108251;28;20031;-72
2024/02/16 01:44:04;;;;;;;8.30;2.72;;;16.00;97.80;;;;;;5105300;27;20091;-71
2024/02/16 01:46:30;;;;;;;8.65;3.13;;;16.00;97.80;;;;;;5095356;28;20024;-72
2024/02/16 01:48:56;;;;;;;5.25;2.75;;;16.00;97.80;;;;;;5094095;28;20028;-72
2024/02/16 01:51:24;;;;;;;7.70;3.20;;;16.00;97.80;;;;;;5097499;28;20027;-72
2024/02/16 01:53:50;;;;;;;5.28;2.25;;;16.00;97.80;;;;;;5097724;28;20036;-72
2024/02/16 01:56:16;;;;;;;5.85;3.00;;;15.90;97.90;;;;;;5101559;28;20036;-72
2024/02/16 01:58:42;;;;;;;8.93;3.00;;;15.90;98.00;;;;;;5097412;28;20032;-72
2024/02/16 02:01:07;;;;;;;4.35;2.15;;;15.80;98.10;;;;;;5103555;28;20482;-72
2024/02/16 02:03:34;;;;;;;8.27;2.70;;;15.80;98.20;;;;;;5111809;28;20031;-72
2024/02/16 02:06:00;;;;;;;9.60;2.83;;;15.80;98.30;;;;;;5104886;28;20231;-72
2024/02/16 02:08:26;;;;;;;8.35;2.50;;;15.70;98.40;;;;;;5095782;28;20123;-72
2024/02/16 02:10:52;;;;;;;10.48;3.15;;;15.60;98.50;;;;;;5093380;28;20028;-73
2024/02/16 02:13:21;;;;;;;7.32;2.67;;;15.60;98.60;;;;;;5089221;28;20059;-72
2024/02/16 02:15:47;;;;;;;4.93;1.90;;;15.50;98.60;;;;;;5094855;28;20479;-72
2024/02/16 02:18:13;;;;;;;7.40;2.50;;;15.50;98.70;;;;;;5098562;28;20039;-72
2024/02/16 02:20:39;;;;;;;4.07;2.17;;;15.50;98.80;;;;;;5102648;28;20032;-73
2024/02/16 02:23:05;;;;;;;5.82;2.10;;;15.50;98.80;;;;;;5102256;28;20055;-72
2024/02/16 02:25:31;;;;;;;8.88;2.80;;;15.50;98.80;;;;;;5099062;28;20039;-72
2024/02/16 02:27:56;;;;;;;5.35;2.33;;;15.40;98.80;;;;;;5088831;28;20162;-73
2024/02/16 02:30:25;;;;;;;6.40;2.90;;;15.40;98.80;;;;;;5099166;28;20495;-73
2024/02/16 02:32:51;;;;;;;7.03;2.40;;;15.40;98.90;;;;;;5097942;28;20066;-72
2024/02/16 02:35:18;;;;;;;10.80;2.30;;;15.40;98.90;;;;;;5089790;28;20131;-72
2024/02/16 02:37:43;;;;;;;4.72;1.80;;;15.30;98.90;;;;;;5105672;28;20036;-73
2024/02/16 02:40:09;;;;;;;9.10;2.45;;;15.30;99.20;;;;;;5100041;28;20084;-72
2024/02/16 02:42:35;;;;;;;8.32;2.20;;;15.30;98.90;;;;;;5098415;28;20059;-73
2024/02/16 02:45:02;;;;;;;6.97;2.80;;;15.30;98.90;;;;;;5097252;28;20085;-73
2024/02/16 02:47:27;;;;;;;11.25;2.40;;;15.30;98.90;;;;;;5086841;28;20030;-72
2024/02/16 02:49:53;;;;;;;11.35;2.78;;;15.30;98.90;;;;;;5097843;28;20051;-72
2024/02/16 02:52:21;;;;;;;5.07;2.63;;;15.20;98.90;;;;;;5088980;28;20375;-72
2024/02/16 02:54:46;;;;;;;6.82;2.78;;;15.30;98.90;;;;;;5100876;28;20032;-73
2024/02/16 02:57:12;;;;;;;9.05;3.15;;;15.30;98.80;;;;;;5091184;28;20589;-73
2024/02/16 02:59:38;;;;;;;5.95;2.67;;;15.30;98.70;;;;;;5101430;28;20122;-73
2024/02/16 03:02:04;;;;;;;9.13;2.65;;;15.30;98.60;;;;;;5092016;28;20054;-73
2024/02/16 03:04:29;;;;;;;6.88;2.55;;;15.40;98.50;;;;;;5098733;28;20566;-73
2024/02/16 03:06:55;;;;;;;8.07;2.65;;;15.40;98.40;;;;;;5101738;28;20491;-72
2024/02/16 03:09:22;;;;;;;8.80;2.63;;;15.50;98.40;;;;;;5095496;28;20522;-72
2024/02/16 03:11:49;;;;;;;5.90;2.60;;;15.50;98.30;;;;;;5090529;28;20039;-73
2024/02/16 03:14:16;;;;;;;7.20;2.40;;;15.50;98.30;;;;;;5111860;27;20042;-72
2024/02/16 03:16:42;;;;;;;8.18;2.53;;;15.50;98.20;;;;;;5094161;27;20113;-72
2024/02/16 03:19:08;;;;;;;5.40;2.75;;;15.50;98.20;;;;;;5091644;28;20036;-72
2024/02/16 03:21:34;;;;;;;4.90;2.50;;;15.50;98.30;;;;;;5094054;28;20031;-72
2024/02/16 03:24:01;;;;;;;5.47;2.50;;;15.40;98.30;;;;;;5111668;28;20039;-73
2024/02/16 03:26:30;;;;;;;11.98;3.00;;;15.40;98.40;;;;;;5096407;28;20035;-72
2024/02/16 03:28:56;;;;;;;7.80;2.67;;;15.30;98.40;;;;;;5098660;28;20039;-72
2024/02/16 03:31:23;;;;;;;5.63;2.08;;;15.30;98.50;;;;;;5096672;28;20048;-73
2024/02/16 03:33:52;;;;;;;5.40;2.47;;;15.20;98.50;;;;;;5098642;28;20032;-72
2024/02/16 03:36:19;;;;;;;5.40;2.78;;;15.20;98.50;;;;;;5114379;27;20433;-72
2024/02/16 03:38:46;;;;;;;5.72;2.30;;;15.20;98.50;;;;;;5098176;28;20495;-73
2024/02/16 03:41:17;;;;;;;5.95;2.45;;;15.20;98.50;;;;;;5100039;28;20035;-72
2024/02/16 03:43:46;;;;;;;3.75;2.20;;;15.20;98.80;;;;;;5101044;28;20023;-72
2024/02/16 03:46:12;;;;;;;6.90;2.63;;;15.20;98.50;;;;;;5111141;28;20041;-72
2024/02/16 03:48:39;;;;;;;5.05;2.20;;;15.30;98.50;;;;;;5101968;27;20564;-73
2024/02/16 03:51:08;;;;;;;6.78;2.90;;;15.30;98.40;;;;;;5125861;27;20050;-72
2024/02/16 03:53:34;;;;;;;6.55;2.83;;;15.30;98.30;;;;;;5102494;27;20031;-72
2024/02/16 03:55:59;;;;;;;5.30;2.60;;;15.40;98.30;;;;;;5091118;28;20521;-73
2024/02/16 03:58:25;;;;;;;11.73;3.03;;;15.30;98.20;;;;;;5103367;27;20115;-72
2024/02/16 04:00:52;;;;;;;7.18;2.55;;;15.40;98.10;;;;;;5091479;28;20036;-72
2024/02/16 04:03:18;;;;;;;6.35;2.70;;;15.40;98.10;;;;;;5088903;28;20047;-73
2024/02/16 04:05:44;;;;;;;8.57;2.75;;;15.40;98.00;;;;;;5100340;27;20024;-72
2024/02/16 04:08:10;;;;;;;5.07;2.70;;;15.40;98.00;;;;;;5114229;27;20039;-73
2024/02/16 04:10:36;;;;;;;4.68;2.80;;;15.30;98.00;;;;;;5088618;28;20089;-72
2024/02/16 04:13:02;;;;;;;5.88;2.53;;;15.30;98.00;;;;;;5100298;28;20046;-73
2024/02/16 04:15:28;;;;;;;9.80;2.70;;;15.30;98.10;;;;;;5090393;28;20073;-72
2024/02/16 04:17:54;;;;;;;9.20;2.60;;;15.30;98.10;;;;;;5101199;28;20496;-73
2024/02/16 04:20:20;;;;;;;5.20;2.42;;;15.30;98.10;;;;;;5090290;28;20368;-72
2024/02/16 04:22:46;;;;;;;6.50;2.53;;;15.20;98.10;;;;;;5105434;27;20031;-72
2024/02/16 04:25:11;;;;;;;7.63;2.90;;;15.30;98.10;;;;;;5106684;28;20084;-72
2024/02/16 04:27:37;;;;;;;7.00;2.83;;;15.20;98.00;;;;;;5093888;28;20043;-72
2024/02/16 04:30:04;;;;;;;5.35;2.92;;;15.30;98.00;;;;;;5103679;28;20111;-73
2024/02/16 04:32:30;;;;;;;4.90;2.95;;;15.30;97.90;;;;;;5090261;28;20060;-72
2024/02/16 04:34:59;;;;;;;7.32;3.05;;;15.30;97.80;;;;;;5095797;27;20039;-73
2024/02/16 04:37:25;;;;;;;8.98;3.20;;;15.30;97.70;;;;;;5096114;28;20016;-72
2024/02/16 04:39:51;;;;;;;6.85;2.70;;;15.30;97.60;;;;;;5091471;28;20023;-72
2024/02/16 04:42:17;;;;;;;6.57;2.88;;;15.40;97.60;;;;;;5098543;28;20038;-72
2024/02/16 04:44:43;;;;;;;6.90;3.70;;;15.30;97.60;;;;;;5096580;28;20024;-73
2024/02/16 04:47:09;;;;;;;7.47;2.72;;;15.40;97.60;;;;;;5095752;28;20042;-72
2024/02/16 04:49:36;;;;;;;8.95;3.30;;;15.40;97.60;;;;;;5095385;28;20040;-73
2024/02/16 04:52:01;;;;;;;8.85;2.67;;;15.40;97.60;;;;;;5095069;28;20032;-72
2024/02/16 04:54:27;;;;;;;6.45;2.92;;;15.30;97.60;;;;;;5102343;28;20081;-72
2024/02/16 04:56:53;;;;;;;4.80;2.53;;;15.30;97.70;;;;;;5092666;28;20816;-72
2024/02/16 04:59:18;;;;;;;7.32;2.10;;;15.30;97.70;;;;;;5094720;28;20028;-73
2024/02/16 05:01:44;;;;;;;6.28;2.38;;;15.20;97.80;;;;;;5096513;28;20039;-72
2024/02/16 05:04:12;;;;;;;4.15;2.35;;;15.20;97.90;;;;;;5097517;28;20042;-72
2024/02/16 05:06:41;;;;;;;5.50;2.33;;;15.20;97.90;;;;;;5100579;28;20079;-72
2024/02/16 05:09:06;;;;;;;8.40;2.55;;;15.20;98.00;;;;;;5088510;28;20032;-72
2024/02/16 05:11:32;;;;;;;4.43;2.40;;;15.10;98.00;;;;;;5097316;28;20040;-74
2024/02/16 05:13:58;;;;;;;7.10;2.80;;;15.10;98.00;;;;;;5107491;27;20394;-73
2024/02/16 05:16:25;;;;;;;5.03;2.60;;;15.10;98.00;;;;;;5095542;28;20035;-73
2024/02/16 05:18:51;;;;;;;6.15;3.17;;;15.10;98.00;;;;;;5089211;28;20468;-73
2024/02/16 05:21:17;;;;;;;8.60;2.83;;;15.10;98.00;;;;;;5090681;28;20115;-73
2024/02/16 05:23:42;;;;;;;6.35;2.63;;;15.10;97.90;;;;;;5106994;28;20055;-73
2024/02/16 05:26:11;;;;;;;11.77;2.65;;;15.10;97.90;;;;;;5101690;28;20035;-73
2024/02/16 05:28:37;;;;;;;7.07;2.78;;;15.10;98.00;;;;;;5094272;28;20028;-72
2024/02/16 05:31:17;;;;;;;5.72;2.90;;;15.10;98.00;;;;;;5095781;28;20036;-73
2024/02/16 05:33:49;;;;;;;6.05;3.10;;;15.00;98.00;;;;;;5106008;28;20031;-73
2024/02/16 05:36:27;;;;;;;6.82;2.60;;;15.00;98.00;;;;;;5093215;28;20032;-73
2024/02/16 05:38:54;;;;;;;6.63;2.97;;;15.10;98.00;;;;;;5094193;28;20035;-73
2024/02/16 05:41:20;;;;;;;9.25;2.97;;;15.10;97.90;;;;;;5106858;28;20115;-76
2024/02/16 05:43:46;;;;;;;4.97;2.70;;;15.10;97.90;;;;;;5093149;28;20139;-72
2024/02/16 05:46:15;;;;;;;5.93;3.13;;;15.10;97.90;;;;;;5090541;28;20058;-73
2024/02/16 05:48:42;;;;;;;7.15;2.75;;;15.10;97.90;;;;;;5100349;28;20445;-74
2024/02/16 05:51:08;;;;;;;5.90;2.75;;;15.10;97.80;;;;;;5108078;28;20044;-72
2024/02/16 05:53:34;;;;;;;8.27;2.38;;;15.10;97.80;;;;;;5091505;28;20036;-73
2024/02/16 05:56:00;;;;;;;6.07;2.95;;;15.10;97.80;;;;;;5099022;28;20076;-73
2024/02/16 05:58:26;;;;;;;6.05;2.88;;;15.10;97.80;;;;;;5100580;28;20032;-72
2024/02/16 06:00:52;;;;;;;6.35;2.40;;;15.10;97.90;;;;;;5088611;28;20040;-72
2024/02/16 06:03:18;;;;;;;6.07;3.08;;;15.00;97.90;;;;;;5088606;28;20115;-73
2024/02/16 06:05:44;;;;;;;4.03;2.50;;;14.90;98.00;;;;;;5087332;28;20108;-72
2024/02/16 06:08:10;;;;;;;4.47;2.25;;;14.90;98.10;;;;;;5087995;28;20119;-72
2024/02/16 06:10:36;;;;;;;4.25;2.17;;;14.90;98.20;;;;;;5095323;28;20059;-73
2024/02/16 06:13:02;;;;;;;5.57;2.83;;;14.90;98.20;;;;;;5097320;28;20509;-73
2024/02/16 06:15:27;;;;;;;7.05;2.88;;;14.80;98.30;;;;;;5091890;28;20131;-73
2024/02/16 06:17:56;;;;;;;9.13;2.85;;;14.80;98.30;;;;;;5090884;28;20797;-73
2024/02/16 06:20:22;;;;;;;6.63;3.28;;;14.80;98.30;;;;;;5105338;28;20023;-73
2024/02/16 06:22:48;;;;;;;5.65;2.63;;;14.80;98.20;;;;;;5092993;28;20024;-72
2024/02/16 06:25:15;;;;;;;4.38;2.78;;;14.90;98.10;;;;;;5089037;28;20039;-73
2024/02/16 06:27:41;;;;;;;5.75;2.80;;;14.90;98.10;;;;;;5094318;28;20051;-73
2024/02/16 06:30:12;;;;;;;6.15;2.72;;;14.90;98.10;;;;;;5098417;28;20030;-71
2024/02/16 06:32:38;;;;;;;11.25;2.38;;;14.90;98.00;;;;;;5096803;28;20036;-73
2024/02/16 06:35:04;;;;;;;6.65;3.00;;;14.90;97.90;;;;;;5113368;28;20042;-72
2024/02/16 06:37:29;;;;;;;7.88;3.33;;;14.90;98.00;;;;;;5110536;28;20051;-73
2024/02/16 06:39:55;;;;;;;9.95;3.42;;;14.90;98.00;;;;;;5100477;28;20056;-72
2024/02/16 06:42:21;;;;;;;9.75;3.00;;;14.90;98.00;;;;;;5100993;28;20024;-72
2024/02/16 06:44:46;;;;;;;6.93;2.28;;;14.90;97.90;;;;;;5096069;28;20054;-72
2024/02/16 06:47:12;;;;;;;5.07;2.85;;;14.90;97.90;;;;;;5096341;28;20437;-72
2024/02/16 06:49:38;;;;;;;3.80;2.40;;;14.90;97.90;;;;;;5101289;28;20043;-72
2024/02/16 06:52:04;;;;;;;8.63;2.85;;;14.90;97.90;;;;;;5103869;28;20439;-73
2024/02/16 06:54:30;;;;;;;4.07;1.88;;;14.90;98.00;;;;;;5100402;28;20093;-74
2024/02/16 06:56:55;;;;;;;6.63;2.05;;;14.80;98.10;;;;;;5091650;28;20032;-72
2024/02/16 06:59:21;;;;;;;4.60;2.75;;;14.80;98.10;;;;;;5090297;28;20020;-72
2024/02/16 07:01:46;;;;;;;4.38;2.50;;;14.70;98.20;;;;;;5100688;28;20475;-72
2024/02/16 07:04:12;;;;;;;5.53;2.42;;;14.70;98.20;;;;;;5092993;28;20019;-72
2024/02/16 07:06:38;;;;;;;3.58;2.20;;;14.70;98.30;;;;;;5092908;28;20502;-72
2024/02/16 07:09:04;;;;;;;9.57;2.90;;;14.70;98.40;;;;;;5101875;28;20108;-72
2024/02/16 07:11:29;;;;;;;4.07;2.40;;;14.60;98.40;;;;;;5102811;28;20470;-72
2024/02/16 07:13:55;;;;;;;4.38;2.55;;;14.60;98.40;;;;;;5110445;27;20058;-72
2024/02/16 07:16:20;;;;;;;2.40;1.90;;;14.60;98.80;;;;;;5108871;27;20040;-72
2024/02/16 07:18:46;;;;;;;4.68;2.15;;;14.60;98.50;;;;;;5089602;28;20101;-72
2024/02/16 07:21:12;;;;;;;4.65;2.47;;;14.50;98.60;;;;;;5088180;28;20020;-72
2024/02/16 07:23:38;;;;;;;5.05;2.88;;;14.50;98.60;;;;;;5095607;28;20554;-72
2024/02/16 07:26:04;;;;;;;10.05;2.60;;;14.50;98.60;;;;;;5094140;28;20172;-75
2024/02/16 07:28:30;;;;;;;8.73;2.72;;;14.50;98.70;;;;;;5108529;28;20036;-72
2024/02/16 07:30:56;;;;;;;6.95;2.83;;;14.40;98.70;;;;;;5094730;28;20039;-73
2024/02/16 07:33:24;;;;;;;2.58;1.38;;;14.40;98.70;;;;;;5091477;28;20024;-72
2024/02/16 07:35:50;;;;;;;3.28;2.08;;;14.50;98.70;;;;;;5114644;27;20054;-72
2024/02/16 07:38:18;;;;;;;4.38;2.28;;;14.40;98.80;;;;;;5110125;28;20421;-70
2024/02/16 07:40:45;;;;;;;4.47;1.77;;;14.40;98.80;;;;;;5105337;28;20501;-73
2024/02/16 07:43:11;;;;;;;2.97;1.90;;;14.30;98.80;;;;;;5090979;28;20558;-73
2024/02/16 07:45:39;;;;;;;4.38;2.15;;;14.30;98.80;;;;;;5105731;28;20055;-73
2024/02/16 07:48:07;;;;;;;4.82;2.47;;;14.30;98.80;;;;;;5109224;28;20474;-72
2024/02/16 07:50:33;;;;;;;11.02;7.05;;;14.30;98.90;;;;;;5094522;28;20056;-72
2024/02/16 07:52:58;;;;;;;3.17;1.90;;;14.40;98.90;;;;;;5107825;28;20027;-72
2024/02/16 07:55:24;;;;;;;7.82;3.70;;;14.30;98.90;;;;;;5093895;28;20039;-72
2024/02/16 07:57:51;;;;;;;9.27;4.57;;;14.30;98.90;;;;;;5100482;28;20088;-73
2024/02/16 08:00:17;;;;;;;9.25;3.40;;;14.30;99.00;;;;;;5092706;28;20043;-72
2024/02/16 08:02:46;;;;;;;5.72;1.85;;;14.30;99.00;;;;;;5090957;28;20020;-72
2024/02/16 08:05:15;;;;;;;5.82;2.25;;;14.20;99.10;;;;;;5100966;28;20036;-72
2024/02/16 08:07:42;;;;;;;12.52;5.45;;;14.20;99.20;;;;;;5089972;28;20036;-72
2024/02/16 08:10:08;;;;;;;8.30;3.97;;;14.10;99.30;;;;;;5088354;28;20031;-72
2024/02/16 08:12:35;;;;;;;3.63;1.98;;;14.10;99.30;;;;;;5106809;28;20088;-72
2024/02/16 08:15:03;;;;;;;1.55;1.45;;;14.10;99.40;;;;;;5117164;27;20054;-72
2024/02/16 08:17:29;;;;;;;5.03;1.60;;;14.10;99.40;;;;;;5101070;28;20032;-72
2024/02/16 08:19:55;;;;;;;2.17;1.98;;;14.10;99.50;;;;;;5102696;28;20437;-72
2024/02/16 08:22:21;;;;;;;2.38;1.52;;;14.10;99.50;;;;;;5096796;28;20020;-72
2024/02/16 08:24:47;;;;;;;2.97;1.70;;;14.10;99.60;;;;;;5100683;28;20035;-72
2024/02/16 08:27:12;;;;;;;1.92;1.65;;;14.10;99.70;;;;;;5095257;28;20024;-72
2024/02/16 08:29:38;;;;;;;2.25;1.52;;;14.10;99.80;;;;;;5092325;28;20040;-72
2024/02/16 08:32:05;;;;;;;4.55;1.38;;;14.00;99.80;;;;;;5101384;28;20020;-73
2024/02/16 08:34:31;;;;;;;0.93;0.68;;;14.00;99.90;;;;;;5099842;27;20043;-73
2024/02/16 08:36:57;;;;;;;3.05;1.60;;;13.90;99.90;;;;;;5100623;27;20116;-74
2024/02/16 08:39:24;;;;;;;2.40;1.38;;;14.00;99.90;;;;;;5094578;28;20127;-73
2024/02/16 08:41:53;;;;;;;3.05;1.50;;;14.00;99.90;;;;;;5089554;28;20040;-72
2024/02/16 08:44:19;;;;;;;2.08;1.30;;;13.90;99.90;;;;;;5092842;28;20028;-72
2024/02/16 08:46:46;;;;;;;2.90;1.85;;;13.90;99.90;;;;;;5097503;28;20036;-72
2024/02/16 08:49:12;;;;;;;2.17;1.90;;;13.90;99.90;;;;;;5091016;28;20048;-73
2024/02/16 08:51:37;;;;;;;3.22;1.80;;;13.90;99.90;;;;;;5097785;28;20043;-72
2024/02/16 08:54:04;;;;;;;2.17;1.52;;;13.80;99.90;;;;;;5104558;28;20024;-73
2024/02/16 08:56:30;;;;;;;3.97;2.00;;;13.80;99.90;;;;;;5096175;28;20096;-72
2024/02/16 08:58:56;;;;;;;4.75;1.77;;;13.90;99.90;;;;;;5101947;28;20024;-72
2024/02/16 09:01:33;;;;;;;1.77;1.45;;;13.80;99.90;;;;;;5095090;28;20127;-72
2024/02/16 09:04:04;;;;;;;4.05;2.22;;;13.80;99.90;;;;;;5088690;28;20365;-73
2024/02/16 09:06:31;;;;;;;5.60;2.13;;;13.80;99.90;;;;;;5100201;28;20024;-72
2024/02/16 09:08:57;;;;;;;5.10;2.22;;;13.80;99.90;;;;;;5093415;28;20506;-72
2024/02/16 09:11:23;;;;;;;4.32;2.45;;;13.80;99.90;;;;;;5105258;28;20042;-72
2024/02/16 09:13:50;;;;;;;3.78;2.25;;;13.80;99.90;;;;;;5107028;27;20027;-72
2024/02/16 09:16:16;;;;;;;4.38;2.47;;;13.80;99.90;;;;;;5105537;28;20044;-72
2024/02/16 09:18:41;;;;;;;2.10;1.50;;;13.80;99.90;;;;;;5092807;28;20043;-71
2024/02/16 09:21:08;;;;;;;2.75;1.73;;;13.80;99.90;;;;;;5090302;28;20119;-73
2024/02/16 09:23:34;;;;;;;25.30;1.63;;;13.80;99.90;;;;;;5101983;28;20470;-73
2024/02/16 09:26:00;;;;;;;3.35;2.53;;;13.80;99.90;;;;;;5106970;28;20081;-72
2024/02/16 09:28:28;;;;;;;4.93;2.40;;;13.80;99.90;;;;;;5102771;28;20115;-72
2024/02/16 09:30:55;;;;;;;10.70;2.00;;;13.80;99.90;;;;;;5087783;28;20361;-73
2024/02/16 09:33:24;;;;;;;5.15;1.70;;;13.80;99.90;;;;;;5089360;28;20073;-73
2024/02/16 09:35:50;;;;;;;3.67;2.20;;;13.90;99.90;;;;;;5110135;27;20042;-75
2024/02/16 09:38:16;;;;;;;2.20;1.63;;;13.90;99.90;;;;;;5107616;28;20110;-69
2024/02/16 09:40:42;;;;;;;3.60;2.38;;;13.90;99.90;;;;;;5105323;28;20196;-73
2024/02/16 09:43:08;;;;;;;3.00;1.95;;;13.90;99.90;;;;;;5090149;28;20035;-71
2024/02/16 09:45:34;;;;;;;2.47;1.65;;;13.90;99.90;;;;;;5087271;28;20040;-72
2024/02/16 09:48:01;;;;;;;5.55;2.85;;;14.00;99.90;;;;;;5092587;28;20028;-72
2024/02/16 09:50:28;;;;;;;3.10;1.77;;;13.90;99.90;;;;;;5106715;28;20119;-72
2024/02/16 09:52:54;;;;;;;4.72;2.03;;;14.00;99.90;;;;;;5093186;28;20526;-72
2024/02/16 09:55:20;;;;;;;5.00;2.95;;;13.90;99.90;;;;;;5092204;28;20468;-75
2024/02/16 09:57:46;;;;;;;9.00;3.15;;;14.00;99.90;;;;;;5093051;28;20028;-70
2024/02/16 10:00:13;;;;;;;4.28;2.58;;;14.00;99.90;;;;;;5088157;28;20051;-70
2024/02/16 10:02:48;;;;;;;4.45;2.15;;;14.00;99.90;;;;;;5087641;28;20123;-70
2024/02/16 10:05:21;;;;;;;6.78;2.92;;;14.00;99.90;;;;;;5101530;28;20097;-71
2024/02/16 10:07:48;;;;;;;6.25;3.17;;;14.10;99.90;;;;;;5102281;28;20031;-79
2024/02/16 10:10:25;;;;;;;9.02;4.40;;;14.10;99.90;;;;;;5087548;28;20028;-71
2024/02/16 10:13:11;;;;;;;7.20;3.60;;;14.10;99.90;;;;;;5093956;28;20441;-71
2024/02/16 10:15:37;;;;;;;3.97;2.40;;;14.10;99.90;;;;;;5093107;28;20102;-72
2024/02/16 10:18:04;;;;;;;5.35;2.88;;;14.10;99.90;;;;;;5090907;28;20036;-71
2024/02/16 10:20:30;;;;;;;6.70;3.08;;;14.20;99.90;;;;;;5100182;28;20035;-71
2024/02/16 10:23:07;;;;;;;5.85;2.80;;;14.20;99.90;;;;;;5094795;28;20027;-72
2024/02/16 10:25:36;;;;;;;9.55;3.65;;;14.20;99.90;;;;;;5104283;28;20024;-71
2024/02/16 10:28:10;;;;;;;10.05;3.53;;;14.20;99.90;;;;;;5091636;28;20024;-71
2024/02/16 10:30:40;;;;;;;9.10;3.60;;;14.20;99.90;;;;;;5091240;28;20039;-72
2024/02/16 10:33:09;;;;;;;8.30;4.13;;;14.30;99.90;;;;;;5091634;28;20039;-71
2024/02/16 10:35:36;;;;;;;6.22;4.05;;;14.30;99.90;;;;;;5112867;27;20038;-71
2024/02/16 10:38:06;;;;;;;5.25;3.55;;;14.30;99.90;;;;;;5099384;28;20027;-71
2024/02/16 10:40:38;;;;;;;4.38;2.63;;;14.30;99.90;;;;;;5093415;28;20472;-71
2024/02/16 10:43:08;;;;;;;3.58;2.40;;;14.40;99.90;;;;;;5097493;28;20085;-71
2024/02/16 10:45:38;;;;;;;6.00;2.47;;;14.40;99.90;;;;;;5102932;28;20048;-71
2024/02/16 10:48:04;;;;;;;8.50;4.43;;;14.40;99.90;;;;;;5104517;28;20028;-71
2024/02/16 10:50:34;;;;;;;5.45;3.65;;;14.50;99.90;;;;;;5105368;28;20066;-71
2024/02/16 10:53:23;;;;;;;7.30;4.72;;;14.50;99.90;;;;;;5111248;28;20038;-71
2024/02/16 10:55:49;;;;;;;7.03;3.33;;;14.50;99.90;;;;;;5109328;28;20522;-71
2024/02/16 10:58:17;;;;;;;7.53;3.40;;;14.50;99.90;;;;;;5098686;28;20028;-72
2024/02/16 11:00:53;;;;;;;10.07;4.88;;;14.50;99.90;;;;;;5101538;28;20090;-71
2024/02/16 11:03:24;;;;;;;6.50;3.28;;;14.50;99.90;;;;;;5089143;28;20464;-71
2024/02/16 11:05:50;;;;;;;7.53;3.90;;;14.50;99.90;;;;;;5092373;28;20035;-71
2024/02/16 11:08:18;;;;;;;8.70;4.53;;;14.50;99.90;;;;;;5103440;28;20031;-72
2024/02/16 11:10:56;;;;;;;9.10;4.22;;;14.60;99.90;;;;;;5100228;28;20130;-71
2024/02/16 11:13:25;;;;;;;11.02;5.43;;;14.50;99.90;;;;;;5096001;27;20654;-71
2024/02/16 11:16:18;;;;;;;10.90;5.82;;;14.60;99.90;;;;;;5109308;28;20036;-72
2024/02/16 11:18:49;;;;;;;6.53;4.30;;;14.60;99.90;;;;;;5089022;28;20044;-72
2024/02/16 11:21:15;;;;;;;12.52;6.57;;;14.60;99.90;;;;;;5095171;28;20043;-71
2024/02/16 11:23:42;;;;;;;13.68;5.78;;;14.50;99.90;;;;;;5105840;28;20035;-71
2024/02/16 11:26:12;;;;;;;11.27;5.63;;;14.60;99.90;;;;;;5090870;28;20617;-71
2024/02/16 11:28:42;;;;;;;14.27;5.95;;;14.60;99.90;;;;;;5102245;28;20044;-71
2024/02/16 11:31:11;;;;;;;12.75;7.10;;;14.60;99.90;;;;;;5091897;28;20105;-71
2024/02/16 11:33:42;;;;;;;12.23;5.07;;;14.50;99.90;;;;;;5096832;28;20037;-71
2024/02/16 11:36:08;;;;;;;11.98;6.78;;;14.50;99.90;;;;;;5110736;27;20035;-71
2024/02/16 11:38:34;;;;;;;17.55;7.25;;;14.50;99.90;;;;;;5094298;28;20754;-71
2024/02/16 11:41:07;;;;;;;21.25;6.95;;;14.40;99.90;;;;;;5090876;28;20031;-72
2024/02/16 11:43:33;;;;;;;16.48;6.55;;;14.40;99.90;;;;;;5091483;28;20137;-72
2024/02/16 11:45:59;;;;;;;13.68;7.75;;;14.40;99.90;;;;;;5101693;28;20051;-72
2024/02/16 11:48:27;;;;;;;13.40;5.35;;;14.40;99.90;;;;;;5090128;28;20036;-72
2024/02/16 11:51:01;;;;;;;8.43;4.82;;;14.40;99.90;;;;;;5103935;28;20048;-72
2024/02/16 11:53:28;;;;;;;12.75;5.30;;;14.30;99.90;;;;;;5103390;28;20089;-72
2024/02/16 11:55:54;;;;;;;12.93;4.75;;;14.40;99.90;;;;;;5093454;28;20050;-72
2024/02/16 11:58:20;;;;;;;11.98;4.70;;;14.40;99.90;;;;;;5099515;28;20111;-72
2024/02/16 12:00:50;;;;;;;13.18;5.72;;;14.50;99.90;;;;;;5090674;28;20055;-72
2024/02/16 12:03:27;;;;;;;8.38;4.93;;;14.40;99.90;;;;;;5093335;28;20528;-72
2024/02/16 12:05:58;;;;;;;9.98;4.30;;;14.40;99.90;;;;;;5092591;28;20031;-72
2024/02/16 12:08:31;;;;;;;12.63;5.20;;;14.30;99.90;;;;;;5089560;28;20039;-72
2024/02/16 12:10:57;;;;;;;9.57;4.82;;;14.30;99.90;;;;;;5089093;28;20107;-72
2024/02/16 12:13:22;;;;;;;6.68;3.67;;;14.40;99.90;;;;;;5095087;27;20550;-72
2024/02/16 12:15:50;;;;;;;8.95;4.38;;;14.30;99.90;;;;;;5099359;28;20097;-72
2024/02/16 12:18:23;;;;;;;6.20;3.80;;;14.30;99.90;;;;;;5102854;28;20070;-72
2024/02/16 12:20:58;;;;;;;10.55;4.10;;;14.30;99.90;;;;;;5101959;28;20031;-72
2024/02/16 12:23:24;;;;;;;6.53;3.58;;;14.30;99.90;;;;;;5104080;28;20107;-73
2024/02/16 12:25:49;;;;;;;11.25;3.78;;;14.30;99.90;;;;;;5096806;28;20928;-72
2024/02/16 12:28:15;;;;;;;8.68;3.00;;;14.30;99.90;;;;;;5104261;28;20024;-72
2024/02/16 12:30:41;;;;;;;5.25;2.85;;;14.30;99.90;;;;;;5090472;28;20043;-72
2024/02/16 12:33:06;;;;;;;5.18;2.50;;;14.30;99.90;;;;;;5096843;28;20027;-72
2024/02/16 12:35:34;;;;;;;5.40;3.00;;;14.30;99.90;;;;;;5096102;27;20047;-81
2024/02/16 12:38:00;;;;;;;3.20;1.88;;;14.30;99.90;;;;;;5101905;28;20024;-72
2024/02/16 12:40:26;;;;;;;3.97;2.25;;;14.30;99.90;;;;;;5089586;28;20054;-72
2024/02/16 12:42:52;;;;;;;7.18;2.90;;;14.30;99.90;;;;;;5089560;28;20058;-72
2024/02/16 12:45:18;;;;;;;10.68;3.53;;;14.30;99.90;;;;;;5088477;28;20046;-72